Time;durP1;ratioP1;P1;durP2;ratioP2;P2;SDS_P1;SDS_P2;PMS_P1;PMS_P2;Temp;Humidity;BMP_temperature;BMP_pressure;BME280_temperature;BME280_humidity;BME280_pressure;Samples;Min_cycle;Max_cycle;Signal;HPM_P1;HPM_P2
2023/02/16 00:01:17;;;;;;;17.35;10.45;;;;;;;-2.73;76.05;97701.97;5054676;28;20049;-63
2023/02/16 00:03:46;;;;;;;18.90;11.13;;;;;;;-2.70;75.83;97695.28;5054698;28;20063;-62
2023/02/16 00:06:15;;;;;;;21.13;12.05;;;;;;;-2.78;76.07;97694.13;5054722;28;20133;-64
2023/02/16 00:08:43;;;;;;;19.85;11.90;;;;;;;-2.74;76.08;97693.41;5054619;28;20048;-65
2023/02/16 00:14:03;;;;;;;22.58;13.15;;;;;;;-2.82;75.83;97697.41;5054617;28;20056;-63
2023/02/16 00:16:30;;;;;;;21.48;12.20;;;;;;;-2.84;76.12;97701.59;5054620;28;20048;-65
2023/02/16 00:18:59;;;;;;;25.88;13.02;;;;;;;-2.90;76.19;97694.59;5054441;28;20053;-62
2023/02/16 00:21:26;;;;;;;23.85;13.23;;;;;;;-2.95;76.48;97688.44;5054078;28;20479;-62
2023/02/16 00:23:53;;;;;;;21.15;13.57;;;;;;;-2.89;76.67;97698.88;5054187;28;20525;-63
2023/02/16 00:26:23;;;;;;;22.98;14.15;;;;;;;-2.89;76.48;97695.47;5054260;28;20461;-64
2023/02/16 00:28:51;;;;;;;18.50;11.03;;;;;;;-2.88;76.49;97695.53;5054397;28;20135;-65
2023/02/16 00:31:20;;;;;;;19.23;12.40;;;;;;;-2.94;76.60;97693.63;5054539;28;20090;-65
2023/02/16 00:33:47;;;;;;;21.10;11.75;;;;;;;-3.07;76.56;97694.88;5054270;28;20127;-63
2023/02/16 00:36:16;;;;;;;20.92;12.70;;;;;;;-3.10;77.18;97694.75;5054240;28;20045;-63
2023/02/16 00:38:43;;;;;;;20.60;11.85;;;;;;;-3.17;77.02;97690.25;5054054;28;20155;-64
2023/02/16 00:43:57;;;;;;;18.90;11.88;;;;;;;-3.36;77.92;97689.63;5049061;28;20053;-62
2023/02/16 00:46:24;;;;;;;18.75;11.10;;;;;;;-3.35;78.23;97693.03;5053959;28;20049;-65
2023/02/16 00:48:51;;;;;;;21.20;12.05;;;;;;;-3.37;78.57;97684.44;5054215;28;20048;-65
2023/02/16 00:51:20;;;;;;;21.30;12.85;;;;;;;-3.38;78.36;97683.56;5053795;28;20128;-64
2023/02/16 00:53:47;;;;;;;23.80;13.18;;;;;;;-3.35;78.17;97680.22;5053698;28;20136;-63
2023/02/16 00:56:20;;;;;;;23.23;13.80;;;;;;;-3.27;78.58;97670.28;5053805;28;20095;-62
2023/02/16 00:58:50;;;;;;;22.83;12.95;;;;;;;-3.20;78.06;97675.66;5053728;28;20135;-63
2023/02/16 01:01:21;;;;;;;23.27;13.50;;;;;;;-3.18;77.78;97671.47;5053736;28;20099;-64
2023/02/16 01:03:48;;;;;;;21.67;12.95;;;;;;;-3.24;77.87;97663.59;5053429;28;20060;-61
2023/02/16 01:11:56;;;;;;;22.58;12.25;;;;;;;-3.39;78.06;97660.47;5053478;28;20059;-63
2023/02/16 01:14:24;;;;;;;18.88;10.75;;;;;;;-3.44;78.52;97663.75;5053116;28;20041;-64
2023/02/16 01:16:51;;;;;;;22.27;13.73;;;;;;;-3.53;78.69;97660.00;5053311;28;20128;-65
2023/02/16 01:19:18;;;;;;;22.58;13.70;;;;;;;-3.53;79.51;97655.72;5053675;28;20053;-62
2023/02/16 01:21:45;;;;;;;23.60;13.20;;;;;;;-3.54;79.72;97654.00;5053362;28;20045;-62
2023/02/16 01:24:14;;;;;;;30.52;14.40;;;;;;;-3.51;79.68;97656.69;5053248;28;20044;-62
2023/02/16 01:26:46;;;;;;;22.67;13.18;;;;;;;-3.41;79.40;97654.44;5053225;28;20053;-65
2023/02/16 01:29:15;;;;;;;18.50;11.23;;;;;;;-3.39;78.81;97651.13;5053330;28;20055;-62
2023/02/16 01:31:42;;;;;;;25.52;14.18;;;;;;;-3.41;78.90;97660.41;5053249;28;20484;-65
2023/02/16 01:34:10;;;;;;;22.02;12.23;;;;;;;-3.39;78.93;97655.34;5052314;28;20067;-62
2023/02/16 01:36:39;;;;;;;25.90;14.25;;;;;;;-3.34;78.78;97654.69;5053142;28;20712;-61
2023/02/16 01:39:07;;;;;;;28.13;14.77;;;;;;;-3.33;78.90;97653.91;5053023;28;20457;-64
2023/02/16 01:41:51;;;;;;;26.90;13.27;;;;;;;-3.28;78.29;97655.75;5052946;28;20049;-65
2023/02/16 01:44:23;;;;;;;21.98;13.75;;;;;;;-3.35;78.57;97652.97;5052932;28;20111;-62
2023/02/16 01:46:53;;;;;;;22.35;13.57;;;;;;;-3.36;78.45;97666.59;5052994;28;20095;-66
2023/02/16 01:49:21;;;;;;;22.98;13.30;;;;;;;-3.41;78.74;97652.75;5052953;28;20052;-63
2023/02/16 01:51:55;;;;;;;20.98;13.38;;;;;;;-3.50;79.25;97652.41;5053351;28;20449;-62
2023/02/16 01:54:33;;;;;;;23.85;13.40;;;;;;;-3.51;79.12;97655.78;5052826;28;20111;-66
2023/02/16 01:57:05;;;;;;;24.63;13.57;;;;;;;-3.47;78.90;97649.97;5052919;28;20132;-65
2023/02/16 01:59:41;;;;;;;23.33;12.65;;;;;;;-3.46;78.68;97654.28;5052903;28;20049;-65
2023/02/16 02:02:17;;;;;;;19.85;11.77;;;;;;;-3.50;78.75;97660.97;5052797;28;20052;-67
2023/02/16 02:07:40;;;;;;;19.80;12.55;;;;;;;-3.63;79.41;97652.00;5052863;28;20056;-64
2023/02/16 02:10:14;;;;;;;20.60;13.20;;;;;;;-3.71;80.39;97658.50;5052752;28;20077;-65
2023/02/16 02:12:49;;;;;;;21.13;13.68;;;;;;;-3.71;80.40;97654.25;5052684;28;20063;-62
2023/02/16 02:15:19;;;;;;;32.92;13.73;;;;;;;-3.67;80.08;97652.69;5052805;28;20045;-63
2023/02/16 02:17:47;;;;;;;22.92;13.15;;;;;;;-3.70;79.56;97656.00;5052748;28;20129;-65
2023/02/16 02:20:21;;;;;;;19.40;12.50;;;;;;;-3.72;79.56;97651.66;5052567;28;20076;-66
2023/02/16 02:23:32;;;;;;;24.42;13.07;;;;;;;-3.76;79.96;97653.25;5052663;28;20136;-62
2023/02/16 02:26:47;;;;;;;32.33;12.70;;;;;;;-3.73;79.76;97649.91;5052644;28;20045;-64
2023/02/16 02:29:50;;;;;;;19.85;11.35;;;;;;;-3.77;80.23;97651.47;5052756;28;20053;-67
2023/02/16 02:32:26;;;;;;;22.15;12.00;;;;;;;-3.76;80.08;97650.69;5029632;28;20103;-63
2023/02/16 02:35:03;;;;;;;17.52;11.65;;;;;;;-3.70;79.98;97653.44;5052563;28;20102;-65
2023/02/16 02:37:46;;;;;;;20.10;12.10;;;;;;;-3.73;79.87;97653.31;5052559;28;20114;-67
2023/02/16 02:40:22;;;;;;;21.27;12.90;;;;;;;-3.79;80.30;97655.69;5052535;28;20071;-63
2023/02/16 02:43:00;;;;;;;21.98;12.80;;;;;;;-3.88;81.16;97648.53;5052421;28;20049;-65
2023/02/16 02:45:34;;;;;;;22.45;13.32;;;;;;;-3.81;81.02;97652.19;5053904;28;20449;-65
2023/02/16 02:48:01;;;;;;;22.45;12.98;;;;;;;-3.78;80.43;97654.84;5056108;28;20041;-65
2023/02/16 02:53:47;;;;;;;24.63;13.35;;;;;;;-3.92;80.46;97646.66;5020322;28;20053;-66
2023/02/16 03:02:03;;;;;;;21.20;11.48;;;;;;;-3.87;80.17;97644.28;5026487;28;20045;-65
2023/02/16 03:04:33;;;;;;;22.38;13.02;;;;;;;-3.89;80.23;97651.91;5056064;28;20499;-63
2023/02/16 03:07:04;;;;;;;21.92;11.77;;;;;;;-3.87;80.32;97644.28;5055987;28;20097;-63
2023/02/16 03:09:32;;;;;;;24.48;13.13;;;;;;;-3.83;79.97;97653.81;5055900;28;20124;-63
2023/02/16 03:14:51;;;;;;;22.65;12.45;;;;;;;-3.99;80.51;97652.38;5055669;28;20060;-64
2023/02/16 03:31:17;;;;;;;21.05;12.63;;;;;;;-3.89;80.30;97645.94;5055417;28;20605;-63
2023/02/16 03:33:53;;;;;;;21.80;11.63;;;;;;;-3.84;80.13;97646.94;5055288;28;20045;-65
2023/02/16 03:36:20;;;;;;;26.70;11.85;;;;;;;-3.93;80.63;97650.03;5055251;28;20128;-63
2023/02/16 03:38:48;;;;;;;30.02;16.48;;;;;;;-3.94;81.00;97645.75;5055138;28;20048;-65
2023/02/16 03:41:15;;;;;;;24.25;13.75;;;;;;;-3.90;81.17;97647.59;5055333;28;20045;-65
2023/02/16 03:43:42;;;;;;;27.98;15.27;;;;;;;-3.83;81.15;97641.91;5055245;28;20045;-67
2023/02/16 03:46:09;;;;;;;27.63;15.38;;;;;;;-3.74;80.32;97653.25;5055125;28;20140;-65
2023/02/16 03:48:36;;;;;;;25.95;14.23;;;;;;;-3.75;80.03;97646.41;5055017;28;20056;-65
2023/02/16 03:51:05;;;;;;;25.52;14.40;;;;;;;-3.83;79.73;97657.25;5055067;28;20048;-62
2023/02/16 03:53:32;;;;;;;25.27;13.43;;;;;;;-3.87;79.70;97650.28;5055156;28;20045;-63
2023/02/16 03:55:59;;;;;;;25.15;12.98;;;;;;;-3.87;79.64;97657.94;5054800;28;20049;-66
2023/02/16 03:58:26;;;;;;;23.17;13.13;;;;;;;-3.91;79.70;97648.44;5054260;28;20088;-63
2023/02/16 04:00:54;;;;;;;24.55;13.57;;;;;;;-3.98;79.86;97641.31;5054793;28;20052;-64
2023/02/16 04:03:21;;;;;;;25.38;14.00;;;;;;;-4.02;80.19;97644.56;5054715;28;20152;-67
2023/02/16 04:05:48;;;;;;;28.60;14.20;;;;;;;-4.02;80.80;97647.13;5054661;28;20129;-62
2023/02/16 04:08:17;;;;;;;28.40;13.43;;;;;;;-4.06;81.14;97651.28;5054639;28;20045;-63
2023/02/16 04:10:44;;;;;;;38.63;14.82;;;;;;;-4.01;81.05;97651.47;5054615;28;20053;-64
2023/02/16 04:13:10;;;;;;;23.55;13.18;;;;;;;-3.95;80.46;97651.66;5054537;28;20541;-65
2023/02/16 04:15:37;;;;;;;24.33;13.40;;;;;;;-3.96;81.01;97652.47;5054536;28;20041;-67
2023/02/16 04:18:04;;;;;;;22.63;13.55;;;;;;;-3.98;81.30;97649.00;5054472;28;20087;-64
2023/02/16 04:20:33;;;;;;;32.10;15.15;;;;;;;-4.07;81.45;97646.97;5054541;28;20053;-64
2023/02/16 04:23:00;;;;;;;22.77;13.25;;;;;;;-4.07;81.29;97647.84;5054338;28;20122;-64
2023/02/16 04:25:29;;;;;;;25.40;13.90;;;;;;;-4.04;81.29;97646.22;5054285;28;20510;-67
2023/02/16 04:27:57;;;;;;;25.05;14.68;;;;;;;-4.14;81.02;97639.88;5054227;28;20049;-67
2023/02/16 04:30:25;;;;;;;23.83;13.55;;;;;;;-4.13;81.09;97644.19;5054260;28;20094;-66
2023/02/16 04:32:53;;;;;;;24.48;13.85;;;;;;;-4.12;80.82;97641.66;5054521;28;20095;-65
2023/02/16 04:35:21;;;;;;;22.25;13.15;;;;;;;-4.16;80.90;97647.50;5054253;28;20049;-66
2023/02/16 04:37:48;;;;;;;24.75;13.15;;;;;;;-4.20;82.07;97650.75;5054081;28;20483;-65
2023/02/16 04:40:17;;;;;;;24.95;14.32;;;;;;;-4.15;81.77;97648.38;5054116;28;20475;-66
2023/02/16 04:42:46;;;;;;;35.40;14.18;;;;;;;-4.08;81.25;97646.09;5053976;28;20515;-65
2023/02/16 04:45:13;;;;;;;25.42;14.70;;;;;;;-4.08;81.59;97647.78;5053925;28;20051;-67
2023/02/16 04:47:40;;;;;;;25.20;13.75;;;;;;;-4.01;81.04;97654.03;5053911;28;20041;-66
2023/02/16 04:50:09;;;;;;;27.00;13.93;;;;;;;-3.97;80.65;97650.75;5053808;28;20052;-64
2023/02/16 04:52:36;;;;;;;26.38;14.38;;;;;;;-4.00;80.97;97648.06;5053880;28;20053;-65
2023/02/16 04:55:04;;;;;;;27.48;14.38;;;;;;;-4.01;80.52;97649.75;5053805;28;20049;-64
2023/02/16 04:57:31;;;;;;;23.98;14.05;;;;;;;-4.03;80.48;97650.53;5053727;28;20076;-64
2023/02/16 04:59:59;;;;;;;22.80;13.52;;;;;;;-4.03;80.19;97653.06;5053895;28;20095;-64
2023/02/16 05:02:27;;;;;;;28.20;14.20;;;;;;;-4.12;80.30;97659.56;5053543;28;20076;-67
2023/02/16 05:04:54;;;;;;;25.95;14.48;;;;;;;-4.13;80.46;97668.06;5053507;28;20049;-68
2023/02/16 05:07:21;;;;;;;27.50;13.93;;;;;;;-4.20;80.66;97664.41;5053505;28;20115;-64
2023/02/16 05:09:48;;;;;;;29.75;14.00;;;;;;;-4.15;80.40;97663.72;5053757;28;20041;-65
2023/02/16 05:15:02;;;;;;;25.40;14.15;;;;;;;-4.22;80.86;97668.56;5053408;28;20056;-63
2023/02/16 05:17:29;;;;;;;26.98;14.77;;;;;;;-4.29;81.44;97664.03;5053355;28;20056;-67
2023/02/16 05:19:58;;;;;;;25.65;14.50;;;;;;;-4.22;81.47;97660.03;5053624;28;20049;-66
2023/02/16 05:22:27;;;;;;;29.00;14.68;;;;;;;-4.17;81.48;97671.31;5053301;28;20479;-67
2023/02/16 05:24:54;;;;;;;27.13;14.75;;;;;;;-4.19;81.58;97667.81;5053276;28;20057;-65
2023/02/16 05:27:23;;;;;;;30.05;14.43;;;;;;;-4.16;81.12;97670.50;5053173;28;20051;-63
2023/02/16 05:29:51;;;;;;;26.25;13.75;;;;;;;-4.11;81.25;97676.66;5053235;28;20438;-66
2023/02/16 05:32:20;;;;;;;32.05;14.85;;;;;;;-4.01;81.13;97669.34;5053158;28;20136;-69
2023/02/16 05:34:47;;;;;;;28.70;14.65;;;;;;;-4.06;81.28;97669.19;5053060;28;20048;-65
2023/02/16 05:37:17;;;;;;;28.83;14.88;;;;;;;-3.99;82.16;97673.72;5053099;28;20136;-67
2023/02/16 05:39:45;;;;;;;27.67;14.93;;;;;;;-3.94;82.26;97674.72;5053081;28;20135;-64
2023/02/16 05:42:15;;;;;;;29.30;14.80;;;;;;;-3.91;82.15;97675.69;5053085;28;20501;-67
2023/02/16 05:44:43;;;;;;;27.58;15.18;;;;;;;-3.79;81.56;97680.38;5053140;28;20085;-66
2023/02/16 05:47:22;;;;;;;24.40;13.80;;;;;;;-3.86;81.01;97685.25;5053041;28;20049;-62
2023/02/16 05:49:51;;;;;;;28.77;15.00;;;;;;;-3.77;81.82;97689.84;5052907;28;20047;-67
2023/02/16 05:52:18;;;;;;;32.72;16.63;;;;;;;-3.65;82.64;97693.69;5052908;28;20059;-63
2023/02/16 05:54:46;;;;;;;26.52;14.93;;;;;;;-2.91;82.64;97687.72;5052904;28;20132;-63
2023/02/16 05:57:13;;;;;;;24.75;13.52;;;;;;;-1.77;79.24;97691.28;5052997;28;20095;-68
2023/02/16 05:59:40;;;;;;;20.55;12.93;;;;;;;-0.65;74.56;97688.25;5052941;28;20049;-64
2023/02/16 06:02:08;;;;;;;18.88;11.38;;;;;;;0.63;69.83;97686.81;5052820;28;20045;-66
2023/02/16 06:04:36;;;;;;;19.73;10.65;;;;;;;1.88;64.96;97688.09;5052775;28;20110;-65
2023/02/16 06:07:05;;;;;;;19.85;11.52;;;;;;;3.14;61.14;97693.97;5052815;28;20049;-64
2023/02/16 06:09:32;;;;;;;18.35;10.45;;;;;;;4.32;56.22;97698.31;5052808;28;20128;-66
2023/02/16 06:11:59;;;;;;;15.40;10.05;;;;;;;5.18;52.81;97702.13;5052771;28;20537;-64
2023/02/16 06:14:26;;;;;;;14.20;10.05;;;;;;;6.05;49.86;97696.16;5052660;28;20103;-68
2023/02/16 06:16:55;;;;;;;14.05;9.80;;;;;;;6.76;47.94;97695.06;5052706;28;20056;-63
2023/02/16 06:19:22;;;;;;;13.93;9.82;;;;;;;7.76;46.87;97702.25;5052802;28;20120;-69
2023/02/16 06:21:50;;;;;;;13.35;9.60;;;;;;;8.77;43.95;97692.59;5056495;28;20052;-69
2023/02/16 06:24:18;;;;;;;16.70;10.50;;;;;;;9.62;41.22;97705.34;5056582;28;20053;-67
2023/02/16 06:26:45;;;;;;;13.85;10.30;;;;;;;10.38;40.39;97711.03;5056550;28;20045;-65
2023/02/16 06:29:13;;;;;;;15.32;9.88;;;;;;;11.09;38.22;97708.81;5056973;28;20049;-67
2023/02/16 06:31:40;;;;;;;15.82;11.15;;;;;;;11.55;37.06;97718.28;5056610;28;20131;-67
2023/02/16 06:34:08;;;;;;;13.73;10.02;;;;;;;12.19;36.48;97716.81;5056362;28;20435;-64
2023/02/16 06:36:35;;;;;;;13.50;9.45;;;;;;;12.73;35.50;97719.72;5056361;28;20060;-66
2023/02/16 06:39:02;;;;;;;13.52;10.45;;;;;;;13.19;34.17;97724.56;5056390;28;20073;-66
2023/02/16 06:41:33;;;;;;;12.30;9.30;;;;;;;13.54;33.73;97722.66;5056262;28;20491;-64
2023/02/16 06:44:01;;;;;;;14.13;10.25;;;;;;;13.78;33.49;97717.53;5056204;28;20041;-68
2023/02/16 06:46:28;;;;;;;12.07;9.98;;;;;;;14.23;33.53;97733.63;5056166;28;20463;-70
2023/02/16 06:48:55;;;;;;;13.77;9.93;;;;;;;14.66;32.98;97734.75;5056209;28;20183;-67
2023/02/16 06:51:22;;;;;;;13.18;11.00;;;;;;;15.38;31.45;97728.69;5056358;28;20110;-69
2023/02/16 06:53:50;;;;;;;15.57;11.07;;;;;;;16.04;30.69;97741.03;5056082;28;20072;-67
2023/02/16 06:56:17;;;;;;;12.98;10.13;;;;;;;16.57;29.88;97734.47;5056088;28;20092;-68
2023/02/16 06:58:46;;;;;;;14.20;10.13;;;;;;;16.96;29.89;97733.66;5056258;28;20045;-67
2023/02/16 07:01:13;;;;;;;15.10;10.93;;;;;;;17.40;28.75;97731.72;5056030;28;20136;-65
2023/02/16 07:03:40;;;;;;;12.38;9.55;;;;;;;17.59;29.08;97736.09;5056175;28;20210;-66
2023/02/16 07:06:08;;;;;;;13.43;10.00;;;;;;;17.92;27.95;97736.28;5055891;28;20053;-67
2023/02/16 07:08:35;;;;;;;16.67;10.55;;;;;;;18.42;27.96;97732.97;5055858;28;20057;-64
2023/02/16 07:11:02;;;;;;;14.43;10.13;;;;;;;18.89;27.28;97734.09;5056105;28;20068;-65
2023/02/16 07:13:29;;;;;;;11.27;9.95;;;;;;;18.73;27.18;97722.59;5055454;28;20045;-67
2023/02/16 07:15:57;;;;;;;12.30;9.82;;;;;;;19.16;26.92;97724.75;5055994;28;20510;-66
2023/02/16 07:18:24;;;;;;;13.82;9.93;;;;;;;19.36;25.98;97715.72;5055617;28;20048;-64
2023/02/16 07:20:51;;;;;;;12.38;10.00;;;;;;;19.49;24.93;97717.69;5055461;28;20049;-69
2023/02/16 07:23:20;;;;;;;11.68;9.63;;;;;;;19.36;25.88;97715.72;5055699;28;20049;-69
2023/02/16 07:25:47;;;;;;;15.50;13.27;;;;;;;18.75;26.67;97726.88;5055477;28;20106;-65
2023/02/16 07:28:14;;;;;;;14.07;11.70;;;;;;;18.09;27.45;97723.97;5055434;28;20505;-69
2023/02/16 07:30:41;;;;;;;15.30;11.70;;;;;;;18.72;26.79;97721.72;5055502;28;20506;-67
2023/02/16 07:33:10;;;;;;;15.27;11.48;;;;;;;19.46;25.98;97716.06;5054216;28;20056;-68
2023/02/16 07:35:38;;;;;;;13.38;11.52;;;;;;;19.71;25.45;97714.66;5055299;28;20099;-66
2023/02/16 07:38:06;;;;;;;13.90;11.43;;;;;;;19.90;24.80;97716.28;5055507;28;20052;-63
2023/02/16 07:40:33;;;;;;;15.20;11.55;;;;;;;20.36;24.70;97709.25;5055146;28;20072;-64
2023/02/16 07:43:01;;;;;;;15.23;11.93;;;;;;;21.19;23.21;97713.16;5055218;28;20049;-64
2023/02/16 07:45:31;;;;;;;13.43;12.02;;;;;;;21.97;22.16;97718.84;5055067;28;20084;-65
2023/02/16 07:47:58;;;;;;;13.33;11.47;;;;;;;22.44;21.73;97719.28;5055103;28;20052;-66
2023/02/16 07:50:27;;;;;;;13.40;11.35;;;;;;;21.66;22.38;97713.69;5055049;28;20122;-65
2023/02/16 07:52:54;;;;;;;14.77;11.77;;;;;;;20.63;23.08;97708.53;5055115;28;20099;-66
2023/02/16 07:55:21;;;;;;;13.25;11.23;;;;;;;21.14;22.65;97713.44;5055063;28;20467;-67
2023/02/16 07:57:53;;;;;;;19.73;13.90;;;;;;;21.76;21.50;97715.81;5054839;28;20132;-67
2023/02/16 08:00:21;;;;;;;18.52;14.93;;;;;;;22.07;21.14;97717.28;5054880;28;20059;-66
2023/02/16 08:02:50;;;;;;;17.08;13.95;;;;;;;22.26;21.54;97721.38;5054905;28;20045;-68
2023/02/16 08:05:18;;;;;;;15.30;13.02;;;;;;;21.65;21.70;97716.47;5054674;28;20084;-63
2023/02/16 08:07:47;;;;;;;15.13;12.50;;;;;;;21.63;21.77;97716.56;5054699;28;20487;-66
2023/02/16 08:10:15;;;;;;;18.23;13.15;;;;;;;21.43;22.89;97713.38;5054688;28;20045;-67
2023/02/16 08:12:42;;;;;;;16.77;12.98;;;;;;;20.90;22.79;97721.97;5054569;28;20060;-66
2023/02/16 08:15:10;;;;;;;21.73;14.57;;;;;;;19.76;24.49;97715.28;5054331;28;20094;-63
2023/02/16 08:17:37;;;;;;;18.55;14.43;;;;;;;19.65;24.09;97710.56;5054479;28;20488;-68
2023/02/16 08:20:08;;;;;;;17.83;13.45;;;;;;;18.69;25.96;97716.56;5054595;28;20442;-65
2023/02/16 08:22:35;;;;;;;;;;;;;;;17.58;27.02;97711.44;5054833;28;20045;-63
2023/02/16 08:25:04;;;;;;;20.83;15.02;;;;;;;17.12;27.77;97717.97;5054552;28;19921;-63
2023/02/16 08:27:32;;;;;;;18.27;15.45;;;;;;;16.45;29.58;97712.97;5054278;28;20056;-64
2023/02/16 08:29:59;;;;;;;18.60;14.52;;;;;;;15.98;29.89;97709.63;5054331;28;20041;-64
2023/02/16 08:32:26;;;;;;;21.85;15.32;;;;;;;15.49;30.73;97705.41;5054259;28;20045;-63
2023/02/16 08:34:53;;;;;;;22.60;15.90;;;;;;;14.37;32.62;97712.97;5054176;28;20480;-67
2023/02/16 08:37:21;;;;;;;20.05;15.00;;;;;;;14.09;33.27;97702.53;5054166;28;20487;-63
2023/02/16 08:39:49;;;;;;;21.05;15.30;;;;;;;14.11;33.04;97704.19;5054060;28;20056;-65
2023/02/16 08:42:17;;;;;;;20.75;15.18;;;;;;;13.52;33.96;97706.09;5053931;28;20049;-62
2023/02/16 08:44:45;;;;;;;19.67;15.77;;;;;;;13.38;34.32;97711.75;5053567;28;20407;-64
2023/02/16 08:47:12;;;;;;;23.75;16.23;;;;;;;12.68;35.93;97705.88;5054004;28;20076;-63
2023/02/16 08:49:39;;;;;;;20.83;15.52;;;;;;;12.49;35.58;97707.25;5053780;28;20123;-66
2023/02/16 08:52:06;;;;;;;22.60;16.00;;;;;;;12.30;36.25;97713.88;5053833;28;20055;-64
2023/02/16 08:54:33;;;;;;;23.05;15.43;;;;;;;12.18;35.94;97701.94;5053724;28;20045;-65
2023/02/16 08:57:01;;;;;;;19.88;15.38;;;;;;;12.19;35.69;97715.03;5053706;28;20068;-65
2023/02/16 08:59:31;;;;;;;21.67;14.82;;;;;;;11.69;36.90;97708.38;5053826;28;20466;-64
2023/02/16 09:01:59;;;;;;;21.77;15.10;;;;;;;11.56;36.36;97709.56;5053756;28;20045;-64
2023/02/16 09:04:28;;;;;;;21.88;15.70;;;;;;;11.58;37.62;97708.63;5053797;28;20048;-66
2023/02/16 09:06:56;;;;;;;20.52;15.35;;;;;;;11.46;38.56;97711.50;5053572;28;20136;-65
2023/02/16 09:09:25;;;;;;;20.27;15.57;;;;;;;11.25;38.78;97718.94;5053503;28;20486;-67
2023/02/16 09:11:52;;;;;;;20.27;14.35;;;;;;;11.19;38.32;97717.34;5053491;28;20131;-64
2023/02/16 09:14:20;;;;;;;16.95;13.27;;;;;;;11.12;38.32;97724.47;5053179;28;20088;-63
2023/02/16 09:16:49;;;;;;;19.42;14.38;;;;;;;11.18;37.41;97715.63;5053575;28;20505;-63
2023/02/16 09:19:18;;;;;;;22.60;14.18;;;;;;;11.20;37.14;97732.16;5053365;28;20128;-66
2023/02/16 09:21:46;;;;;;;20.23;14.10;;;;;;;11.04;38.85;97722.88;5053268;28;20044;-67
2023/02/16 09:24:13;;;;;;;20.88;14.68;;;;;;;10.93;38.02;97720.50;5053208;28;20049;-67
2023/02/16 09:26:41;;;;;;;18.90;14.55;;;;;;;11.04;38.61;97717.66;5053279;28;20084;-62
2023/02/16 09:29:11;;;;;;;23.08;14.75;;;;;;;11.20;38.47;97728.69;5053268;28;20127;-65
2023/02/16 09:31:38;;;;;;;24.38;15.90;;;;;;;11.16;38.66;97725.25;5053184;28;20582;-67
2023/02/16 09:34:14;;;;;;;22.65;16.20;;;;;;;11.10;38.57;97718.41;5053148;28;20084;-66
2023/02/16 09:36:42;;;;;;;20.40;14.77;;;;;;;11.11;39.10;97725.34;5053079;28;20053;-66
2023/02/16 09:39:09;;;;;;;20.50;14.85;;;;;;;11.16;38.21;97721.75;5053141;28;20049;-65
2023/02/16 09:41:50;;;;;;;19.33;13.98;;;;;;;10.76;39.55;97719.09;5053036;28;20056;-62
2023/02/16 09:44:27;;;;;;;24.73;14.60;;;;;;;10.66;38.85;97721.03;5053003;28;20107;-66
2023/02/16 09:46:56;;;;;;;23.38;15.10;;;;;;;10.72;39.48;97710.44;5052965;28;20045;-68
2023/02/16 09:49:31;;;;;;;19.30;14.45;;;;;;;10.74;38.75;97711.28;5052905;28;20578;-64
2023/02/16 09:52:02;;;;;;;20.23;13.90;;;;;;;10.47;38.11;97716.16;5052881;28;20045;-68
2023/02/16 09:54:41;;;;;;;18.95;13.80;;;;;;;10.16;40.26;97721.91;5052293;28;20144;-68
2023/02/16 09:57:18;;;;;;;16.23;12.68;;;;;;;10.06;39.31;97723.81;5052875;28;20045;-66
2023/02/16 09:59:52;;;;;;;24.65;13.90;;;;;;;10.10;38.71;97709.81;5052802;28;20128;-69
2023/02/16 10:02:39;;;;;;;22.05;13.27;;;;;;;10.33;39.13;97712.91;5052933;28;20060;-65
2023/02/16 10:05:19;;;;;;;18.80;13.65;;;;;;;10.27;39.31;97707.78;5052843;28;20088;-64
2023/02/16 10:07:59;;;;;;;20.58;12.57;;;;;;;10.10;38.37;97701.97;5052794;28;20080;-66
2023/02/16 10:10:34;;;;;;;19.10;14.05;;;;;;;9.98;39.38;97703.03;5052784;28;20045;-64
2023/02/16 10:13:06;;;;;;;19.13;13.07;;;;;;;9.99;40.91;97686.47;5052892;28;20052;-66
2023/02/16 10:15:34;;;;;;;18.30;12.82;;;;;;;10.15;40.25;97693.16;5052738;28;20037;-64
2023/02/16 10:18:08;;;;;;;17.95;12.88;;;;;;;10.24;39.60;97700.84;5052644;28;20053;-67
2023/02/16 10:20:40;;;;;;;16.95;12.93;;;;;;;10.33;39.70;97690.19;5052714;28;20045;-67
2023/02/16 10:23:26;;;;;;;19.20;13.30;;;;;;;10.44;39.42;97690.00;5052828;28;20119;-66
2023/02/16 10:25:57;;;;;;;21.38;12.65;;;;;;;10.50;38.20;97686.44;5052504;28;20502;-68
2023/02/16 10:28:32;;;;;;;18.65;13.73;;;;;;;10.32;38.99;97679.78;5052591;28;20151;-62
2023/02/16 10:31:04;;;;;;;20.20;14.13;;;;;;;10.33;39.48;97676.28;5052557;28;20044;-67
2023/02/16 10:33:41;;;;;;;18.60;13.52;;;;;;;10.31;39.10;97665.84;5052595;28;20131;-65
2023/02/16 10:36:20;;;;;;;18.05;13.20;;;;;;;10.34;38.48;97672.78;5052602;28;20052;-66
2023/02/16 10:38:54;;;;;;;19.48;14.25;;;;;;;10.33;39.72;97669.28;5052501;28;20099;-66
2023/02/16 10:41:31;;;;;;;19.35;13.98;;;;;;;10.47;39.29;97658.59;5052505;28;20129;-65
2023/02/16 10:44:03;;;;;;;17.80;13.10;;;;;;;10.52;38.09;97660.25;5052426;28;20041;-65
2023/02/16 10:46:34;;;;;;;18.00;12.88;;;;;;;10.34;39.92;97663.19;5052692;28;20148;-68
2023/02/16 10:49:01;;;;;;;21.05;14.52;;;;;;;10.14;38.71;97667.94;5052569;28;20376;-67
2023/02/16 10:51:36;;;;;;;21.60;14.13;;;;;;;10.03;39.60;97653.28;5052343;28;20049;-64
2023/02/16 10:54:08;;;;;;;23.45;14.20;;;;;;;10.11;40.38;97659.22;5052302;28;20045;-66
2023/02/16 10:56:52;;;;;;;18.95;13.18;;;;;;;10.21;38.66;97656.47;5052349;28;20053;-65
2023/02/16 10:59:22;;;;;;;20.10;14.35;;;;;;;10.04;40.02;97649.78;5050978;28;20052;-65
2023/02/16 11:01:52;;;;;;;18.98;13.93;;;;;;;10.15;39.04;97646.97;5052249;28;20041;-62
2023/02/16 11:04:48;;;;;;;21.38;14.50;;;;;;;10.23;39.82;97644.19;5052226;28;20049;-66
2023/02/16 11:07:18;;;;;;;20.50;14.68;;;;;;;10.03;39.26;97655.03;5019946;28;20045;-64
2023/02/16 11:09:47;;;;;;;19.23;14.43;;;;;;;10.06;39.78;97645.38;5055864;28;20128;-68
2023/02/16 11:12:16;;;;;;;22.33;14.43;;;;;;;9.97;39.08;97648.16;5055743;28;20123;-65
2023/02/16 11:14:50;;;;;;;22.45;14.35;;;;;;;9.96;39.56;97641.19;5055592;28;20041;-67
2023/02/16 11:17:20;;;;;;;19.77;14.25;;;;;;;10.02;40.46;97633.25;5055839;28;20133;-68
2023/02/16 11:19:53;;;;;;;20.75;14.55;;;;;;;10.03;39.95;97639.34;5055635;28;20045;-65
2023/02/16 11:22:31;;;;;;;23.15;13.68;;;;;;;10.15;40.11;97625.19;5055619;28;20049;-63
2023/02/16 11:25:20;;;;;;;19.08;12.38;;;;;;;10.26;39.16;97619.75;5055593;28;20550;-67
2023/02/16 11:27:54;;;;;;;25.10;13.77;;;;;;;10.27;39.05;97617.13;5055519;28;20072;-66
2023/02/16 11:30:31;;;;;;;20.40;13.85;;;;;;;10.37;39.82;97615.16;5055488;28;20049;-68
2023/02/16 11:33:00;;;;;;;21.00;14.27;;;;;;;10.58;39.01;97623.50;5055442;28;20055;-68
2023/02/16 11:35:30;;;;;;;17.95;13.30;;;;;;;10.59;38.33;97607.78;5055534;28;20068;-68
2023/02/16 11:37:59;;;;;;;18.85;14.05;;;;;;;10.53;38.20;97607.91;5055374;28;20396;-64
2023/02/16 11:40:29;;;;;;;19.52;13.48;;;;;;;10.50;38.93;97607.97;5055226;28;20045;-68
2023/02/16 11:42:58;;;;;;;17.40;13.48;;;;;;;10.45;39.19;97605.44;5055572;28;20041;-67
2023/02/16 11:45:29;;;;;;;21.88;14.55;;;;;;;10.38;39.28;97606.41;5055156;28;20087;-67
2023/02/16 11:47:58;;;;;;;18.85;13.65;;;;;;;10.43;39.31;97603.72;5055463;28;20045;-66
2023/02/16 11:50:27;;;;;;;24.33;14.07;;;;;;;10.61;39.43;97599.88;5055458;28;20053;-65
2023/02/16 11:52:57;;;;;;;16.48;13.25;;;;;;;10.72;38.90;97586.59;5055049;28;20053;-66
2023/02/16 11:55:32;;;;;;;19.50;13.18;;;;;;;10.63;38.82;97590.25;5054941;28;20049;-65
2023/02/16 11:58:17;;;;;;;20.67;14.20;;;;;;;10.43;37.97;97580.16;5054900;28;20449;-68
2023/02/16 12:00:57;;;;;;;19.13;13.25;;;;;;;10.33;38.74;97580.34;5054999;28;20106;-65
2023/02/16 12:03:44;;;;;;;19.45;13.65;;;;;;;10.28;39.32;97574.38;5054759;28;20045;-66
2023/02/16 12:06:25;;;;;;;18.70;13.85;;;;;;;10.19;39.37;97574.53;5054761;28;20053;-68
2023/02/16 12:09:02;;;;;;;;;;;;;;;10.22;38.55;97570.13;5055124;28;20078;-66
2023/02/16 12:11:38;;;;;;;16.33;12.40;;;;;;;10.19;39.79;97570.19;5054702;28;20012;-65
2023/02/16 12:14:19;;;;;;;20.63;14.30;;;;;;;10.19;39.74;97566.72;5054493;28;20056;-66
2023/02/16 12:16:54;;;;;;;20.52;12.88;;;;;;;10.15;38.72;97555.47;5054666;28;20073;-64